sensor_id;sensor_type;location;lat;lon;timestamp;P1;durP1;ratioP1;P2;durP2;ratioP2
79308;SDS011;68767;53.078;7.386;2023-06-22T00:00:05;43.67;;;28.38;;
79308;SDS011;68767;53.078;7.386;2023-06-22T00:02:37;48.22;;;27.60;;
79308;SDS011;68767;53.078;7.386;2023-06-22T00:05:04;56.67;;;30.55;;
79308;SDS011;68767;53.078;7.386;2023-06-22T00:07:31;53.13;;;29.90;;
79308;SDS011;68767;53.078;7.386;2023-06-22T00:09:58;50.40;;;28.73;;
79308;SDS011;68767;53.078;7.386;2023-06-22T00:12:25;51.80;;;30.00;;
79308;SDS011;68767;53.078;7.386;2023-06-22T00:14:52;54.13;;;30.25;;
79308;SDS011;68767;53.078;7.386;2023-06-22T00:17:19;52.60;;;30.45;;
79308;SDS011;68767;53.078;7.386;2023-06-22T00:19:47;52.47;;;30.67;;
79308;SDS011;68767;53.078;7.386;2023-06-22T00:22:14;48.22;;;29.92;;
79308;SDS011;68767;53.078;7.386;2023-06-22T00:24:41;54.05;;;29.13;;
79308;SDS011;68767;53.078;7.386;2023-06-22T00:27:08;51.33;;;28.15;;
79308;SDS011;68767;53.078;7.386;2023-06-22T00:29:35;51.65;;;28.80;;
79308;SDS011;68767;53.078;7.386;2023-06-22T00:32:02;52.88;;;29.23;;
79308;SDS011;68767;53.078;7.386;2023-06-22T00:34:30;50.70;;;27.90;;
79308;SDS011;68767;53.078;7.386;2023-06-22T00:36:58;46.63;;;26.98;;
79308;SDS011;68767;53.078;7.386;2023-06-22T00:39:26;46.15;;;25.60;;
79308;SDS011;68767;53.078;7.386;2023-06-22T00:41:53;46.47;;;27.73;;
79308;SDS011;68767;53.078;7.386;2023-06-22T00:44:20;46.80;;;26.88;;
79308;SDS011;68767;53.078;7.386;2023-06-22T00:46:47;47.67;;;28.98;;
79308;SDS011;68767;53.078;7.386;2023-06-22T00:49:14;45.58;;;25.80;;
79308;SDS011;68767;53.078;7.386;2023-06-22T00:51:41;44.97;;;26.48;;
79308;SDS011;68767;53.078;7.386;2023-06-22T00:54:12;43.45;;;25.05;;
79308;SDS011;68767;53.078;7.386;2023-06-22T00:56:40;43.17;;;25.52;;
79308;SDS011;68767;53.078;7.386;2023-06-22T00:59:08;46.10;;;26.17;;
79308;SDS011;68767;53.078;7.386;2023-06-22T01:01:39;41.65;;;25.73;;
79308;SDS011;68767;53.078;7.386;2023-06-22T01:04:07;44.05;;;25.52;;
79308;SDS011;68767;53.078;7.386;2023-06-22T01:10:10;40.03;;;23.65;;
79308;SDS011;68767;53.078;7.386;2023-06-22T01:13:01;46.40;;;25.67;;
79308;SDS011;68767;53.078;7.386;2023-06-22T01:15:32;42.17;;;23.35;;
79308;SDS011;68767;53.078;7.386;2023-06-22T01:18:04;41.78;;;25.52;;
79308;SDS011;68767;53.078;7.386;2023-06-22T01:20:35;47.88;;;25.48;;
79308;SDS011;68767;53.078;7.386;2023-06-22T01:23:16;38.25;;;24.50;;
79308;SDS011;68767;53.078;7.386;2023-06-22T01:26:22;48.90;;;27.98;;
79308;SDS011;68767;53.078;7.386;2023-06-22T01:29:01;45.85;;;27.38;;
79308;SDS011;68767;53.078;7.386;2023-06-22T01:31:31;46.20;;;25.25;;
79308;SDS011;68767;53.078;7.386;2023-06-22T01:34:02;47.17;;;25.77;;
79308;SDS011;68767;53.078;7.386;2023-06-22T01:36:32;47.95;;;27.05;;
79308;SDS011;68767;53.078;7.386;2023-06-22T01:39:00;42.47;;;25.73;;
79308;SDS011;68767;53.078;7.386;2023-06-22T01:41:33;46.60;;;26.92;;
79308;SDS011;68767;53.078;7.386;2023-06-22T01:44:02;46.63;;;25.05;;
79308;SDS011;68767;53.078;7.386;2023-06-22T01:46:34;51.28;;;28.02;;
79308;SDS011;68767;53.078;7.386;2023-06-22T01:49:02;45.47;;;26.67;;
79308;SDS011;68767;53.078;7.386;2023-06-22T01:51:31;49.45;;;28.65;;
79308;SDS011;68767;53.078;7.386;2023-06-22T01:53:59;48.90;;;27.00;;
79308;SDS011;68767;53.078;7.386;2023-06-22T01:56:28;51.33;;;30.73;;
79308;SDS011;68767;53.078;7.386;2023-06-22T02:01:31;50.22;;;28.00;;
79308;SDS011;68767;53.078;7.386;2023-06-22T02:04:03;48.75;;;27.05;;
79308;SDS011;68767;53.078;7.386;2023-06-22T02:06:38;47.33;;;27.40;;
79308;SDS011;68767;53.078;7.386;2023-06-22T02:09:12;51.10;;;27.80;;
79308;SDS011;68767;53.078;7.386;2023-06-22T02:11:42;47.60;;;28.15;;
79308;SDS011;68767;53.078;7.386;2023-06-22T02:14:14;60.00;;;31.25;;
79308;SDS011;68767;53.078;7.386;2023-06-22T02:16:44;56.85;;;32.05;;
79308;SDS011;68767;53.078;7.386;2023-06-22T02:19:13;55.53;;;32.25;;
79308;SDS011;68767;53.078;7.386;2023-06-22T02:21:42;58.17;;;32.03;;
79308;SDS011;68767;53.078;7.386;2023-06-22T02:24:09;57.25;;;31.50;;
79308;SDS011;68767;53.078;7.386;2023-06-22T02:26:36;62.75;;;33.22;;
79308;SDS011;68767;53.078;7.386;2023-06-22T02:29:06;63.15;;;35.38;;
79308;SDS011;68767;53.078;7.386;2023-06-22T02:31:33;60.05;;;32.85;;
79308;SDS011;68767;53.078;7.386;2023-06-22T02:36:30;58.70;;;32.05;;
79308;SDS011;68767;53.078;7.386;2023-06-22T02:38:59;56.20;;;30.80;;
79308;SDS011;68767;53.078;7.386;2023-06-22T02:41:29;66.55;;;36.00;;
79308;SDS011;68767;53.078;7.386;2023-06-22T02:43:56;65.10;;;34.35;;
79308;SDS011;68767;53.078;7.386;2023-06-22T02:46:24;76.03;;;39.58;;
79308;SDS011;68767;53.078;7.386;2023-06-22T02:48:51;67.43;;;36.80;;
79308;SDS011;68767;53.078;7.386;2023-06-22T02:51:18;66.80;;;37.75;;
79308;SDS011;68767;53.078;7.386;2023-06-22T02:53:46;75.53;;;37.58;;
79308;SDS011;68767;53.078;7.386;2023-06-22T02:56:15;67.60;;;38.33;;
79308;SDS011;68767;53.078;7.386;2023-06-22T02:58:43;70.43;;;35.97;;
79308;SDS011;68767;53.078;7.386;2023-06-22T03:01:11;74.90;;;38.30;;
79308;SDS011;68767;53.078;7.386;2023-06-22T03:03:45;73.60;;;37.65;;
79308;SDS011;68767;53.078;7.386;2023-06-22T03:06:12;76.35;;;40.58;;
79308;SDS011;68767;53.078;7.386;2023-06-22T03:08:41;71.32;;;39.17;;
79308;SDS011;68767;53.078;7.386;2023-06-22T03:11:09;66.38;;;37.60;;
79308;SDS011;68767;53.078;7.386;2023-06-22T03:13:36;80.97;;;41.95;;
79308;SDS011;68767;53.078;7.386;2023-06-22T03:16:05;76.95;;;40.30;;
79308;SDS011;68767;53.078;7.386;2023-06-22T03:18:32;76.43;;;41.17;;
79308;SDS011;68767;53.078;7.386;2023-06-22T03:20:59;74.60;;;39.47;;
79308;SDS011;68767;53.078;7.386;2023-06-22T03:23:26;76.72;;;39.70;;
79308;SDS011;68767;53.078;7.386;2023-06-22T03:25:54;73.80;;;39.30;;
79308;SDS011;68767;53.078;7.386;2023-06-22T03:28:22;71.45;;;39.05;;
79308;SDS011;68767;53.078;7.386;2023-06-22T03:30:49;72.18;;;40.55;;
79308;SDS011;68767;53.078;7.386;2023-06-22T03:33:16;73.18;;;38.33;;
79308;SDS011;68767;53.078;7.386;2023-06-22T03:35:43;71.05;;;39.97;;
79308;SDS011;68767;53.078;7.386;2023-06-22T03:38:10;73.13;;;39.22;;
79308;SDS011;68767;53.078;7.386;2023-06-22T03:40:37;76.53;;;36.92;;
79308;SDS011;68767;53.078;7.386;2023-06-22T03:43:04;70.65;;;38.78;;
79308;SDS011;68767;53.078;7.386;2023-06-22T03:45:31;71.80;;;39.25;;
79308;SDS011;68767;53.078;7.386;2023-06-22T03:48:00;75.00;;;40.47;;
79308;SDS011;68767;53.078;7.386;2023-06-22T03:50:27;72.50;;;39.63;;
79308;SDS011;68767;53.078;7.386;2023-06-22T03:52:54;72.50;;;38.58;;
79308;SDS011;68767;53.078;7.386;2023-06-22T03:55:22;69.88;;;39.45;;
79308;SDS011;68767;53.078;7.386;2023-06-22T03:57:49;75.43;;;41.25;;
79308;SDS011;68767;53.078;7.386;2023-06-22T04:00:16;69.53;;;37.38;;
79308;SDS011;68767;53.078;7.386;2023-06-22T04:02:43;74.43;;;41.95;;
79308;SDS011;68767;53.078;7.386;2023-06-22T04:05:10;69.55;;;41.78;;
79308;SDS011;68767;53.078;7.386;2023-06-22T04:07:37;73.65;;;40.17;;
79308;SDS011;68767;53.078;7.386;2023-06-22T04:10:04;68.90;;;38.95;;
79308;SDS011;68767;53.078;7.386;2023-06-22T04:12:32;68.90;;;39.25;;
79308;SDS011;68767;53.078;7.386;2023-06-22T04:15:00;71.72;;;40.22;;
79308;SDS011;68767;53.078;7.386;2023-06-22T04:17:28;71.53;;;36.72;;
79308;SDS011;68767;53.078;7.386;2023-06-22T04:19:55;72.35;;;37.17;;
79308;SDS011;68767;53.078;7.386;2023-06-22T04:22:22;75.70;;;39.88;;
79308;SDS011;68767;53.078;7.386;2023-06-22T04:24:49;61.72;;;35.55;;
79308;SDS011;68767;53.078;7.386;2023-06-22T04:27:19;66.97;;;37.50;;
79308;SDS011;68767;53.078;7.386;2023-06-22T04:29:48;65.22;;;35.00;;
79308;SDS011;68767;53.078;7.386;2023-06-22T04:32:15;63.72;;;34.97;;
79308;SDS011;68767;53.078;7.386;2023-06-22T04:34:43;64.47;;;33.20;;
79308;SDS011;68767;53.078;7.386;2023-06-22T04:37:10;58.63;;;33.65;;
79308;SDS011;68767;53.078;7.386;2023-06-22T04:39:42;60.63;;;34.22;;
79308;SDS011;68767;53.078;7.386;2023-06-22T04:42:09;62.65;;;33.22;;
79308;SDS011;68767;53.078;7.386;2023-06-22T04:44:36;61.65;;;34.97;;
79308;SDS011;68767;53.078;7.386;2023-06-22T04:47:03;56.15;;;31.02;;
79308;SDS011;68767;53.078;7.386;2023-06-22T04:49:33;55.33;;;32.75;;
79308;SDS011;68767;53.078;7.386;2023-06-22T04:52:02;51.13;;;30.13;;
79308;SDS011;68767;53.078;7.386;2023-06-22T04:54:30;53.72;;;31.30;;
79308;SDS011;68767;53.078;7.386;2023-06-22T04:57:04;50.25;;;29.52;;
79308;SDS011;68767;53.078;7.386;2023-06-22T04:59:37;44.05;;;25.90;;
79308;SDS011;68767;53.078;7.386;2023-06-22T05:02:05;49.75;;;28.88;;
79308;SDS011;68767;53.078;7.386;2023-06-22T05:04:36;42.90;;;27.13;;
79308;SDS011;68767;53.078;7.386;2023-06-22T05:07:06;46.33;;;27.75;;
79308;SDS011;68767;53.078;7.386;2023-06-22T05:09:33;43.00;;;26.77;;
79308;SDS011;68767;53.078;7.386;2023-06-22T05:12:01;44.28;;;25.20;;
79308;SDS011;68767;53.078;7.386;2023-06-22T05:14:29;45.03;;;25.20;;
79308;SDS011;68767;53.078;7.386;2023-06-22T05:16:56;41.05;;;24.50;;
79308;SDS011;68767;53.078;7.386;2023-06-22T05:19:30;37.22;;;22.05;;
79308;SDS011;68767;53.078;7.386;2023-06-22T05:22:00;36.10;;;21.83;;
79308;SDS011;68767;53.078;7.386;2023-06-22T05:24:27;32.67;;;20.77;;
79308;SDS011;68767;53.078;7.386;2023-06-22T05:26:54;34.00;;;21.20;;
79308;SDS011;68767;53.078;7.386;2023-06-22T05:29:23;32.95;;;18.90;;
79308;SDS011;68767;53.078;7.386;2023-06-22T05:31:50;34.75;;;20.00;;
79308;SDS011;68767;53.078;7.386;2023-06-22T05:34:17;31.83;;;19.17;;
79308;SDS011;68767;53.078;7.386;2023-06-22T05:36:44;32.63;;;19.25;;
79308;SDS011;68767;53.078;7.386;2023-06-22T05:39:12;31.13;;;18.63;;
79308;SDS011;68767;53.078;7.386;2023-06-22T05:41:41;27.35;;;17.45;;
79308;SDS011;68767;53.078;7.386;2023-06-22T05:44:09;29.15;;;18.45;;
79308;SDS011;68767;53.078;7.386;2023-06-22T05:46:37;30.38;;;17.85;;
79308;SDS011;68767;53.078;7.386;2023-06-22T05:49:07;30.05;;;17.10;;
79308;SDS011;68767;53.078;7.386;2023-06-22T05:51:34;25.95;;;17.38;;
79308;SDS011;68767;53.078;7.386;2023-06-22T05:54:04;27.88;;;16.10;;
79308;SDS011;68767;53.078;7.386;2023-06-22T05:56:31;28.30;;;17.02;;
79308;SDS011;68767;53.078;7.386;2023-06-22T05:58:58;28.70;;;17.15;;
79308;SDS011;68767;53.078;7.386;2023-06-22T06:01:25;27.05;;;16.42;;
79308;SDS011;68767;53.078;7.386;2023-06-22T06:03:53;27.38;;;16.38;;
79308;SDS011;68767;53.078;7.386;2023-06-22T06:06:20;22.83;;;14.88;;
79308;SDS011;68767;53.078;7.386;2023-06-22T06:08:47;27.25;;;16.73;;
79308;SDS011;68767;53.078;7.386;2023-06-22T06:11:14;23.60;;;15.02;;
79308;SDS011;68767;53.078;7.386;2023-06-22T06:13:43;25.00;;;14.45;;
79308;SDS011;68767;53.078;7.386;2023-06-22T06:16:10;23.40;;;14.75;;
79308;SDS011;68767;53.078;7.386;2023-06-22T06:21:06;21.88;;;13.07;;
79308;SDS011;68767;53.078;7.386;2023-06-22T06:23:33;25.17;;;13.30;;
79308;SDS011;68767;53.078;7.386;2023-06-22T06:26:00;22.13;;;13.98;;
79308;SDS011;68767;53.078;7.386;2023-06-22T06:28:28;19.27;;;12.60;;
79308;SDS011;68767;53.078;7.386;2023-06-22T06:30:55;24.75;;;13.27;;
79308;SDS011;68767;53.078;7.386;2023-06-22T06:33:22;29.58;;;15.52;;
79308;SDS011;68767;53.078;7.386;2023-06-22T06:35:51;23.45;;;14.00;;
79308;SDS011;68767;53.078;7.386;2023-06-22T06:38:18;21.30;;;14.43;;
79308;SDS011;68767;53.078;7.386;2023-06-22T06:40:45;23.88;;;13.82;;
79308;SDS011;68767;53.078;7.386;2023-06-22T06:43:14;20.30;;;12.20;;
79308;SDS011;68767;53.078;7.386;2023-06-22T06:45:41;20.77;;;12.48;;
79308;SDS011;68767;53.078;7.386;2023-06-22T06:48:08;20.42;;;12.30;;
79308;SDS011;68767;53.078;7.386;2023-06-22T06:50:36;22.25;;;12.45;;
79308;SDS011;68767;53.078;7.386;2023-06-22T06:53:03;17.88;;;11.63;;
79308;SDS011;68767;53.078;7.386;2023-06-22T06:55:30;19.80;;;11.73;;
79308;SDS011;68767;53.078;7.386;2023-06-22T06:57:59;18.35;;;10.60;;
79308;SDS011;68767;53.078;7.386;2023-06-22T07:00:26;23.23;;;11.68;;
79308;SDS011;68767;53.078;7.386;2023-06-22T07:02:54;15.88;;;11.18;;
79308;SDS011;68767;53.078;7.386;2023-06-22T07:05:21;21.25;;;11.93;;
79308;SDS011;68767;53.078;7.386;2023-06-22T07:07:48;17.55;;;11.20;;
79308;SDS011;68767;53.078;7.386;2023-06-22T07:10:15;19.73;;;12.45;;
79308;SDS011;68767;53.078;7.386;2023-06-22T07:12:42;21.25;;;13.52;;
79308;SDS011;68767;53.078;7.386;2023-06-22T07:15:09;21.33;;;12.88;;
79308;SDS011;68767;53.078;7.386;2023-06-22T07:17:38;19.02;;;11.35;;
79308;SDS011;68767;53.078;7.386;2023-06-22T07:20:08;21.88;;;12.35;;
79308;SDS011;68767;53.078;7.386;2023-06-22T07:22:40;18.17;;;11.45;;
79308;SDS011;68767;53.078;7.386;2023-06-22T07:25:09;20.27;;;13.15;;
79308;SDS011;68767;53.078;7.386;2023-06-22T07:27:43;20.70;;;12.70;;
79308;SDS011;68767;53.078;7.386;2023-06-22T07:30:11;20.08;;;12.52;;
79308;SDS011;68767;53.078;7.386;2023-06-22T07:32:40;21.65;;;12.73;;
79308;SDS011;68767;53.078;7.386;2023-06-22T07:35:07;18.95;;;11.55;;
79308;SDS011;68767;53.078;7.386;2023-06-22T07:37:35;18.98;;;13.00;;
79308;SDS011;68767;53.078;7.386;2023-06-22T07:40:02;17.27;;;12.30;;
79308;SDS011;68767;53.078;7.386;2023-06-22T07:42:33;20.92;;;11.93;;
79308;SDS011;68767;53.078;7.386;2023-06-22T07:45:00;18.20;;;12.52;;
79308;SDS011;68767;53.078;7.386;2023-06-22T07:47:29;19.00;;;11.77;;
79308;SDS011;68767;53.078;7.386;2023-06-22T07:49:58;15.98;;;10.68;;
79308;SDS011;68767;53.078;7.386;2023-06-22T07:52:28;19.85;;;11.38;;
79308;SDS011;68767;53.078;7.386;2023-06-22T07:54:55;18.63;;;10.32;;
79308;SDS011;68767;53.078;7.386;2023-06-22T07:57:22;16.50;;;10.98;;
79308;SDS011;68767;53.078;7.386;2023-06-22T07:59:49;17.80;;;9.55;;
79308;SDS011;68767;53.078;7.386;2023-06-22T08:02:16;16.17;;;9.35;;
79308;SDS011;68767;53.078;7.386;2023-06-22T08:04:44;16.05;;;9.10;;
79308;SDS011;68767;53.078;7.386;2023-06-22T08:07:11;17.52;;;10.20;;
79308;SDS011;68767;53.078;7.386;2023-06-22T08:09:38;16.52;;;10.45;;
79308;SDS011;68767;53.078;7.386;2023-06-22T08:12:05;13.60;;;9.10;;
79308;SDS011;68767;53.078;7.386;2023-06-22T08:14:32;13.02;;;8.35;;
79308;SDS011;68767;53.078;7.386;2023-06-22T08:17:02;18.67;;;8.43;;
79308;SDS011;68767;53.078;7.386;2023-06-22T08:19:33;14.55;;;7.68;;
79308;SDS011;68767;53.078;7.386;2023-06-22T08:22:00;15.98;;;8.48;;
79308;SDS011;68767;53.078;7.386;2023-06-22T08:24:27;15.45;;;7.25;;
79308;SDS011;68767;53.078;7.386;2023-06-22T08:26:57;15.20;;;8.52;;
79308;SDS011;68767;53.078;7.386;2023-06-22T08:29:24;20.85;;;9.82;;
79308;SDS011;68767;53.078;7.386;2023-06-22T08:31:51;17.90;;;8.90;;
79308;SDS011;68767;53.078;7.386;2023-06-22T08:34:18;15.73;;;10.27;;
79308;SDS011;68767;53.078;7.386;2023-06-22T08:36:48;18.30;;;10.30;;
79308;SDS011;68767;53.078;7.386;2023-06-22T08:39:18;17.42;;;11.52;;
79308;SDS011;68767;53.078;7.386;2023-06-22T08:41:47;18.63;;;9.93;;
79308;SDS011;68767;53.078;7.386;2023-06-22T08:44:16;14.88;;;9.15;;
79308;SDS011;68767;53.078;7.386;2023-06-22T08:46:45;14.27;;;8.40;;
79308;SDS011;68767;53.078;7.386;2023-06-22T08:49:12;22.13;;;12.05;;
79308;SDS011;68767;53.078;7.386;2023-06-22T08:51:39;19.38;;;12.05;;
79308;SDS011;68767;53.078;7.386;2023-06-22T08:54:06;15.10;;;9.48;;
79308;SDS011;68767;53.078;7.386;2023-06-22T08:56:35;18.42;;;11.00;;
79308;SDS011;68767;53.078;7.386;2023-06-22T08:59:02;19.38;;;10.88;;
79308;SDS011;68767;53.078;7.386;2023-06-22T09:01:29;19.60;;;12.65;;
79308;SDS011;68767;53.078;7.386;2023-06-22T09:03:56;16.90;;;11.38;;
79308;SDS011;68767;53.078;7.386;2023-06-22T09:06:24;20.40;;;10.90;;
79308;SDS011;68767;53.078;7.386;2023-06-22T09:08:51;21.83;;;11.82;;
79308;SDS011;68767;53.078;7.386;2023-06-22T09:11:18;19.88;;;12.25;;
79308;SDS011;68767;53.078;7.386;2023-06-22T09:13:45;18.23;;;10.75;;
79308;SDS011;68767;53.078;7.386;2023-06-22T09:16:13;20.63;;;12.25;;
79308;SDS011;68767;53.078;7.386;2023-06-22T09:18:40;22.42;;;11.98;;
79308;SDS011;68767;53.078;7.386;2023-06-22T09:21:07;17.30;;;10.73;;
79308;SDS011;68767;53.078;7.386;2023-06-22T09:23:38;16.00;;;9.82;;
79308;SDS011;68767;53.078;7.386;2023-06-22T09:26:05;16.58;;;9.13;;
79308;SDS011;68767;53.078;7.386;2023-06-22T09:28:35;15.80;;;10.32;;
79308;SDS011;68767;53.078;7.386;2023-06-22T09:31:02;15.50;;;8.63;;
79308;SDS011;68767;53.078;7.386;2023-06-22T09:33:29;17.90;;;9.43;;
79308;SDS011;68767;53.078;7.386;2023-06-22T09:35:56;16.02;;;9.38;;
79308;SDS011;68767;53.078;7.386;2023-06-22T09:38:23;14.35;;;8.77;;
79308;SDS011;68767;53.078;7.386;2023-06-22T09:40:50;16.23;;;10.52;;
79308;SDS011;68767;53.078;7.386;2023-06-22T09:43:17;17.23;;;10.13;;
79308;SDS011;68767;53.078;7.386;2023-06-22T09:45:44;16.42;;;9.57;;
79308;SDS011;68767;53.078;7.386;2023-06-22T09:48:11;17.50;;;11.70;;
79308;SDS011;68767;53.078;7.386;2023-06-22T09:50:38;13.88;;;8.55;;
79308;SDS011;68767;53.078;7.386;2023-06-22T09:53:05;16.15;;;8.32;;
79308;SDS011;68767;53.078;7.386;2023-06-22T09:55:32;13.70;;;8.48;;
79308;SDS011;68767;53.078;7.386;2023-06-22T09:57:59;12.43;;;8.27;;
79308;SDS011;68767;53.078;7.386;2023-06-22T10:00:26;15.32;;;9.20;;
79308;SDS011;68767;53.078;7.386;2023-06-22T10:02:53;18.80;;;9.90;;
79308;SDS011;68767;53.078;7.386;2023-06-22T10:05:25;14.40;;;8.63;;
79308;SDS011;68767;53.078;7.386;2023-06-22T10:07:52;16.58;;;8.77;;
79308;SDS011;68767;53.078;7.386;2023-06-22T10:10:19;14.02;;;8.88;;
79308;SDS011;68767;53.078;7.386;2023-06-22T10:12:47;12.27;;;8.30;;
79308;SDS011;68767;53.078;7.386;2023-06-22T10:15:21;13.65;;;7.78;;
79308;SDS011;68767;53.078;7.386;2023-06-22T10:17:48;13.98;;;7.78;;
79308;SDS011;68767;53.078;7.386;2023-06-22T10:20:15;13.57;;;9.00;;
79308;SDS011;68767;53.078;7.386;2023-06-22T10:22:44;13.50;;;7.32;;
79308;SDS011;68767;53.078;7.386;2023-06-22T10:25:12;12.77;;;7.50;;
79308;SDS011;68767;53.078;7.386;2023-06-22T10:27:39;11.07;;;6.90;;
79308;SDS011;68767;53.078;7.386;2023-06-22T10:30:07;13.43;;;8.68;;
79308;SDS011;68767;53.078;7.386;2023-06-22T10:32:37;14.25;;;8.30;;
79308;SDS011;68767;53.078;7.386;2023-06-22T10:35:05;13.18;;;7.78;;
79308;SDS011;68767;53.078;7.386;2023-06-22T10:37:32;14.30;;;9.07;;
79308;SDS011;68767;53.078;7.386;2023-06-22T10:39:59;12.32;;;7.25;;
79308;SDS011;68767;53.078;7.386;2023-06-22T10:42:26;10.82;;;7.22;;
79308;SDS011;68767;53.078;7.386;2023-06-22T10:44:53;11.13;;;6.88;;
79308;SDS011;68767;53.078;7.386;2023-06-22T10:47:20;9.40;;;6.60;;
79308;SDS011;68767;53.078;7.386;2023-06-22T10:49:47;10.07;;;7.03;;
79308;SDS011;68767;53.078;7.386;2023-06-22T10:52:14;12.98;;;7.43;;
79308;SDS011;68767;53.078;7.386;2023-06-22T10:54:41;8.20;;;5.45;;
79308;SDS011;68767;53.078;7.386;2023-06-22T10:57:08;13.07;;;7.85;;
79308;SDS011;68767;53.078;7.386;2023-06-22T10:59:35;11.60;;;6.82;;
79308;SDS011;68767;53.078;7.386;2023-06-22T11:02:03;12.82;;;6.43;;
79308;SDS011;68767;53.078;7.386;2023-06-22T11:04:30;14.80;;;6.47;;
79308;SDS011;68767;53.078;7.386;2023-06-22T11:06:57;8.98;;;5.72;;
79308;SDS011;68767;53.078;7.386;2023-06-22T11:09:24;11.27;;;6.97;;
79308;SDS011;68767;53.078;7.386;2023-06-22T11:11:55;8.88;;;5.82;;
79308;SDS011;68767;53.078;7.386;2023-06-22T11:14:22;8.90;;;5.72;;
79308;SDS011;68767;53.078;7.386;2023-06-22T11:16:49;9.60;;;5.57;;
79308;SDS011;68767;53.078;7.386;2023-06-22T11:19:16;9.73;;;6.38;;
79308;SDS011;68767;53.078;7.386;2023-06-22T11:21:45;12.00;;;6.30;;
79308;SDS011;68767;53.078;7.386;2023-06-22T11:24:12;12.30;;;5.60;;
79308;SDS011;68767;53.078;7.386;2023-06-22T11:26:39;12.68;;;5.68;;
79308;SDS011;68767;53.078;7.386;2023-06-22T11:29:06;12.68;;;5.65;;
79308;SDS011;68767;53.078;7.386;2023-06-22T11:31:36;9.98;;;5.97;;
79308;SDS011;68767;53.078;7.386;2023-06-22T11:34:03;10.65;;;5.88;;
79308;SDS011;68767;53.078;7.386;2023-06-22T11:36:30;10.15;;;6.18;;
79308;SDS011;68767;53.078;7.386;2023-06-22T11:38:59;7.70;;;5.25;;
79308;SDS011;68767;53.078;7.386;2023-06-22T11:41:26;9.35;;;5.28;;
79308;SDS011;68767;53.078;7.386;2023-06-22T11:43:58;13.82;;;5.90;;
79308;SDS011;68767;53.078;7.386;2023-06-22T11:46:25;8.38;;;5.05;;
79308;SDS011;68767;53.078;7.386;2023-06-22T11:48:52;7.70;;;4.63;;
79308;SDS011;68767;53.078;7.386;2023-06-22T11:51:18;9.15;;;5.28;;
79308;SDS011;68767;53.078;7.386;2023-06-22T11:53:45;9.52;;;5.40;;
79308;SDS011;68767;53.078;7.386;2023-06-22T11:56:12;9.82;;;5.38;;
79308;SDS011;68767;53.078;7.386;2023-06-22T11:58:39;10.07;;;5.63;;
79308;SDS011;68767;53.078;7.386;2023-06-22T12:01:06;10.48;;;5.05;;
79308;SDS011;68767;53.078;7.386;2023-06-22T12:03:33;12.68;;;6.43;;
79308;SDS011;68767;53.078;7.386;2023-06-22T12:06:00;11.32;;;6.05;;
79308;SDS011;68767;53.078;7.386;2023-06-22T12:08:27;9.27;;;5.78;;
79308;SDS011;68767;53.078;7.386;2023-06-22T12:10:54;9.63;;;6.30;;
79308;SDS011;68767;53.078;7.386;2023-06-22T12:13:21;9.50;;;6.55;;
79308;SDS011;68767;53.078;7.386;2023-06-22T12:15:48;12.57;;;7.03;;
79308;SDS011;68767;53.078;7.386;2023-06-22T12:18:15;7.38;;;5.03;;
79308;SDS011;68767;53.078;7.386;2023-06-22T12:20:42;9.05;;;5.85;;
79308;SDS011;68767;53.078;7.386;2023-06-22T12:23:09;11.13;;;5.70;;
79308;SDS011;68767;53.078;7.386;2023-06-22T12:25:36;10.02;;;6.20;;
79308;SDS011;68767;53.078;7.386;2023-06-22T12:28:03;10.88;;;6.30;;
79308;SDS011;68767;53.078;7.386;2023-06-22T12:30:32;9.63;;;5.32;;
79308;SDS011;68767;53.078;7.386;2023-06-22T12:33:00;9.20;;;5.43;;
79308;SDS011;68767;53.078;7.386;2023-06-22T12:35:27;8.50;;;5.55;;
79308;SDS011;68767;53.078;7.386;2023-06-22T12:37:54;12.65;;;7.90;;
79308;SDS011;68767;53.078;7.386;2023-06-22T12:40:21;12.73;;;7.50;;
79308;SDS011;68767;53.078;7.386;2023-06-22T12:42:48;13.10;;;7.00;;
79308;SDS011;68767;53.078;7.386;2023-06-22T12:45:19;12.02;;;7.60;;
79308;SDS011;68767;53.078;7.386;2023-06-22T12:47:48;11.25;;;8.13;;
79308;SDS011;68767;53.078;7.386;2023-06-22T12:50:16;11.02;;;7.20;;
79308;SDS011;68767;53.078;7.386;2023-06-22T12:52:43;11.68;;;6.75;;
79308;SDS011;68767;53.078;7.386;2023-06-22T12:55:10;12.50;;;6.82;;
79308;SDS011;68767;53.078;7.386;2023-06-22T12:57:37;10.32;;;5.93;;
79308;SDS011;68767;53.078;7.386;2023-06-22T13:00:04;12.68;;;8.02;;
79308;SDS011;68767;53.078;7.386;2023-06-22T13:02:34;9.93;;;6.65;;
79308;SDS011;68767;53.078;7.386;2023-06-22T13:05:01;11.10;;;6.80;;
79308;SDS011;68767;53.078;7.386;2023-06-22T13:07:29;13.88;;;7.38;;
79308;SDS011;68767;53.078;7.386;2023-06-22T13:09:56;11.00;;;6.43;;
79308;SDS011;68767;53.078;7.386;2023-06-22T13:12:23;13.00;;;9.02;;
79308;SDS011;68767;53.078;7.386;2023-06-22T13:14:50;13.90;;;9.02;;
79308;SDS011;68767;53.078;7.386;2023-06-22T13:17:17;9.50;;;7.03;;
79308;SDS011;68767;53.078;7.386;2023-06-22T13:19:44;9.95;;;6.53;;
79308;SDS011;68767;53.078;7.386;2023-06-22T13:22:27;10.70;;;7.18;;
79308;SDS011;68767;53.078;7.386;2023-06-22T13:24:56;14.00;;;7.63;;
79308;SDS011;68767;53.078;7.386;2023-06-22T13:27:23;13.68;;;8.65;;
79308;SDS011;68767;53.078;7.386;2023-06-22T13:29:51;14.02;;;8.15;;
79308;SDS011;68767;53.078;7.386;2023-06-22T13:32:19;12.23;;;8.02;;
79308;SDS011;68767;53.078;7.386;2023-06-22T13:34:47;16.02;;;7.95;;
79308;SDS011;68767;53.078;7.386;2023-06-22T13:37:14;13.88;;;7.88;;
79308;SDS011;68767;53.078;7.386;2023-06-22T13:39:41;14.18;;;8.05;;
79308;SDS011;68767;53.078;7.386;2023-06-22T13:42:08;13.27;;;6.93;;
79308;SDS011;68767;53.078;7.386;2023-06-22T13:44:35;16.77;;;9.52;;
79308;SDS011;68767;53.078;7.386;2023-06-22T13:47:02;15.07;;;9.15;;
79308;SDS011;68767;53.078;7.386;2023-06-22T13:49:31;19.50;;;9.23;;
79308;SDS011;68767;53.078;7.386;2023-06-22T13:51:58;13.98;;;8.00;;
79308;SDS011;68767;53.078;7.386;2023-06-22T13:54:26;13.80;;;6.85;;
79308;SDS011;68767;53.078;7.386;2023-06-22T13:56:55;14.60;;;8.02;;
79308;SDS011;68767;53.078;7.386;2023-06-22T13:59:23;13.43;;;7.95;;
79308;SDS011;68767;53.078;7.386;2023-06-22T14:01:51;15.55;;;7.15;;
79308;SDS011;68767;53.078;7.386;2023-06-22T14:04:19;11.82;;;7.43;;
79308;SDS011;68767;53.078;7.386;2023-06-22T14:06:46;56.83;;;27.98;;
79308;SDS011;68767;53.078;7.386;2023-06-22T14:09:13;63.47;;;26.65;;
79308;SDS011;68767;53.078;7.386;2023-06-22T14:11:40;24.80;;;10.98;;
79308;SDS011;68767;53.078;7.386;2023-06-22T14:14:07;14.57;;;8.88;;
79308;SDS011;68767;53.078;7.386;2023-06-22T14:16:34;11.73;;;8.52;;
79308;SDS011;68767;53.078;7.386;2023-06-22T14:19:04;16.20;;;7.50;;
79308;SDS011;68767;53.078;7.386;2023-06-22T14:21:31;12.57;;;7.85;;
79308;SDS011;68767;53.078;7.386;2023-06-22T14:23:58;13.57;;;7.90;;
79308;SDS011;68767;53.078;7.386;2023-06-22T14:26:25;16.02;;;7.13;;
79308;SDS011;68767;53.078;7.386;2023-06-22T14:28:52;13.98;;;8.35;;
79308;SDS011;68767;53.078;7.386;2023-06-22T14:31:20;15.98;;;7.65;;
79308;SDS011;68767;53.078;7.386;2023-06-22T14:33:47;13.10;;;8.35;;
79308;SDS011;68767;53.078;7.386;2023-06-22T14:36:15;13.82;;;7.97;;
79308;SDS011;68767;53.078;7.386;2023-06-22T14:38:44;11.85;;;6.88;;
79308;SDS011;68767;53.078;7.386;2023-06-22T14:41:12;12.45;;;7.72;;
79308;SDS011;68767;53.078;7.386;2023-06-22T14:44:00;11.27;;;6.90;;